sensor_id;sensor_type;location;lat;lon;timestamp;pressure;altitude;pressure_sealevel;temperature;humidity
4972;BME280;2501;51.214;6.768;2023-07-29T00:00:04;100471.16;;;18.54;100.00
4972;BME280;2501;51.214;6.768;2023-07-29T00:02:35;100469.22;;;18.61;100.00
4972;BME280;2501;51.214;6.768;2023-07-29T00:05:04;100469.19;;;18.62;100.00
4972;BME280;2501;51.214;6.768;2023-07-29T00:07:33;100461.28;;;18.59;100.00
4972;BME280;2501;51.214;6.768;2023-07-29T00:10:02;100461.31;;;18.58;100.00
4972;BME280;2501;51.214;6.768;2023-07-29T00:12:30;100459.56;;;18.57;100.00
4972;BME280;2501;51.214;6.768;2023-07-29T00:14:58;100458.75;;;18.55;100.00
4972;BME280;2501;51.214;6.768;2023-07-29T00:17:27;100450.22;;;18.45;100.00
4972;BME280;2501;51.214;6.768;2023-07-29T00:19:58;100452.56;;;18.54;100.00
4972;BME280;2501;51.214;6.768;2023-07-29T00:22:26;100447.19;;;18.56;100.00
4972;BME280;2501;51.214;6.768;2023-07-29T00:24:54;100444.22;;;18.38;100.00
4972;BME280;2501;51.214;6.768;2023-07-29T00:27:24;100448.44;;;18.46;100.00
4972;BME280;2501;51.214;6.768;2023-07-29T00:29:53;100448.66;;;18.38;100.00
4972;BME280;2501;51.214;6.768;2023-07-29T00:32:21;100453.03;;;18.39;100.00
4972;BME280;2501;51.214;6.768;2023-07-29T00:34:50;100450.47;;;18.36;100.00
4972;BME280;2501;51.214;6.768;2023-07-29T00:37:21;100447.91;;;18.34;100.00
4972;BME280;2501;51.214;6.768;2023-07-29T00:39:49;100438.41;;;18.26;100.00
4972;BME280;2501;51.214;6.768;2023-07-29T00:42:18;100445.56;;;18.24;100.00
4972;BME280;2501;51.214;6.768;2023-07-29T00:44:46;100446.41;;;18.24;100.00
4972;BME280;2501;51.214;6.768;2023-07-29T00:47:15;100441.44;;;18.14;100.00
4972;BME280;2501;51.214;6.768;2023-07-29T00:49:44;100435.56;;;18.02;100.00
4972;BME280;2501;51.214;6.768;2023-07-29T00:52:12;100434.56;;;18.06;100.00
4972;BME280;2501;51.214;6.768;2023-07-29T00:54:44;100437.97;;;18.12;100.00
4972;BME280;2501;51.214;6.768;2023-07-29T00:57:13;100444.28;;;18.07;100.00
4972;BME280;2501;51.214;6.768;2023-07-29T00:59:42;100434.56;;;18.06;100.00
4972;BME280;2501;51.214;6.768;2023-07-29T01:02:11;100438.00;;;18.10;100.00
4972;BME280;2501;51.214;6.768;2023-07-29T01:04:39;100439.19;;;18.29;100.00
4972;BME280;2501;51.214;6.768;2023-07-29T01:07:16;100430.88;;;18.12;100.00
4972;BME280;2501;51.214;6.768;2023-07-29T01:10:00;100425.44;;;18.17;100.00
4972;BME280;2501;51.214;6.768;2023-07-29T01:12:36;100424.53;;;18.18;100.00
4972;BME280;2501;51.214;6.768;2023-07-29T01:15:12;100422.00;;;18.13;100.00
4972;BME280;2501;51.214;6.768;2023-07-29T01:17:44;100425.56;;;18.12;100.00
4972;BME280;2501;51.214;6.768;2023-07-29T01:20:15;100415.56;;;18.20;100.00
4972;BME280;2501;51.214;6.768;2023-07-29T01:22:46;100407.59;;;18.20;100.00
4972;BME280;2501;51.214;6.768;2023-07-29T01:25:17;100402.34;;;18.19;100.00
4972;BME280;2501;51.214;6.768;2023-07-29T01:27:48;100409.16;;;18.27;100.00
4972;BME280;2501;51.214;6.768;2023-07-29T01:30:17;100414.59;;;18.23;100.00
4972;BME280;2501;51.214;6.768;2023-07-29T01:32:50;100413.59;;;18.27;100.00
4972;BME280;2501;51.214;6.768;2023-07-29T01:35:24;100417.19;;;18.26;100.00
4972;BME280;2501;51.214;6.768;2023-07-29T01:37:57;100420.59;;;18.29;100.00
4972;BME280;2501;51.214;6.768;2023-07-29T01:40:29;100415.31;;;18.29;100.00
4972;BME280;2501;51.214;6.768;2023-07-29T01:42:58;100415.53;;;18.22;100.00
4972;BME280;2501;51.214;6.768;2023-07-29T01:45:28;100413.47;;;18.31;100.00
4972;BME280;2501;51.214;6.768;2023-07-29T01:48:00;100411.19;;;18.47;100.00
4972;BME280;2501;51.214;6.768;2023-07-29T01:50:29;100412.56;;;18.32;100.00
4972;BME280;2501;51.214;6.768;2023-07-29T01:52:57;100405.56;;;18.30;100.00
4972;BME280;2501;51.214;6.768;2023-07-29T01:55:29;100402.94;;;18.28;100.00
4972;BME280;2501;51.214;6.768;2023-07-29T01:57:57;100402.13;;;18.26;100.00
4972;BME280;2501;51.214;6.768;2023-07-29T02:00:26;100397.84;;;18.21;100.00
4972;BME280;2501;51.214;6.768;2023-07-29T02:02:54;100393.38;;;18.23;100.00
4972;BME280;2501;51.214;6.768;2023-07-29T02:05:23;100382.56;;;18.29;100.00
4972;BME280;2501;51.214;6.768;2023-07-29T02:07:51;100377.53;;;18.20;100.00
4972;BME280;2501;51.214;6.768;2023-07-29T02:10:20;100384.06;;;18.37;100.00
4972;BME280;2501;51.214;6.768;2023-07-29T02:12:51;100381.75;;;18.27;100.00
4972;BME280;2501;51.214;6.768;2023-07-29T02:15:19;100395.03;;;18.27;100.00
4972;BME280;2501;51.214;6.768;2023-07-29T02:17:50;100403.06;;;18.24;100.00
4972;BME280;2501;51.214;6.768;2023-07-29T02:20:18;100406.59;;;18.24;100.00
4972;BME280;2501;51.214;6.768;2023-07-29T02:22:47;100405.63;;;18.27;100.00
4972;BME280;2501;51.214;6.768;2023-07-29T02:25:16;100400.38;;;18.25;100.00
4972;BME280;2501;51.214;6.768;2023-07-29T02:27:44;100407.38;;;18.28;100.00
4972;BME280;2501;51.214;6.768;2023-07-29T02:30:15;100407.34;;;18.29;100.00
4972;BME280;2501;51.214;6.768;2023-07-29T02:32:44;100405.63;;;18.27;100.00
4972;BME280;2501;51.214;6.768;2023-07-29T02:35:12;100396.75;;;18.28;100.00
4972;BME280;2501;51.214;6.768;2023-07-29T02:37:40;100398.56;;;18.27;100.00
4972;BME280;2501;51.214;6.768;2023-07-29T02:40:10;100393.28;;;18.26;100.00
4972;BME280;2501;51.214;6.768;2023-07-29T02:42:39;100383.50;;;18.28;100.00
4972;BME280;2501;51.214;6.768;2023-07-29T02:45:08;100381.75;;;18.27;100.00
4972;BME280;2501;51.214;6.768;2023-07-29T02:47:39;100388.84;;;18.26;100.00
4972;BME280;2501;51.214;6.768;2023-07-29T02:50:08;100388.81;;;18.28;100.00
4972;BME280;2501;51.214;6.768;2023-07-29T02:52:37;100394.97;;;18.28;100.00
4972;BME280;2501;51.214;6.768;2023-07-29T02:55:06;100393.16;;;18.30;100.00
4972;BME280;2501;51.214;6.768;2023-07-29T02:57:34;100394.19;;;18.25;100.00
4972;BME280;2501;51.214;6.768;2023-07-29T03:00:04;100399.50;;;18.25;100.00
4972;BME280;2501;51.214;6.768;2023-07-29T03:02:32;100388.94;;;18.23;100.00
4972;BME280;2501;51.214;6.768;2023-07-29T03:05:04;100388.16;;;18.20;100.00
4972;BME280;2501;51.214;6.768;2023-07-29T03:07:33;100400.63;;;18.18;100.00
4972;BME280;2501;51.214;6.768;2023-07-29T03:10:01;100399.66;;;18.20;100.00
4972;BME280;2501;51.214;6.768;2023-07-29T03:12:29;100400.63;;;18.18;100.00
4972;BME280;2501;51.214;6.768;2023-07-29T03:14:58;100394.44;;;18.17;100.00
4972;BME280;2501;51.214;6.768;2023-07-29T03:17:27;100391.81;;;18.17;100.00
4972;BME280;2501;51.214;6.768;2023-07-29T03:19:55;100387.50;;;18.13;100.00
4972;BME280;2501;51.214;6.768;2023-07-29T03:22:26;100386.66;;;18.11;100.00
4972;BME280;2501;51.214;6.768;2023-07-29T03:24:55;100383.16;;;18.11;100.00
4972;BME280;2501;51.214;6.768;2023-07-29T03:27:23;100389.31;;;18.11;100.00
4972;BME280;2501;51.214;6.768;2023-07-29T03:29:51;100385.84;;;18.09;100.00
4972;BME280;2501;51.214;6.768;2023-07-29T03:32:20;100372.72;;;18.04;100.00
4972;BME280;2501;51.214;6.768;2023-07-29T03:34:48;100373.50;;;18.08;100.00
4972;BME280;2501;51.214;6.768;2023-07-29T03:37:17;100370.06;;;18.04;100.00
4972;BME280;2501;51.214;6.768;2023-07-29T03:39:48;100375.44;;;18.01;100.00
4972;BME280;2501;51.214;6.768;2023-07-29T03:42:17;100375.41;;;18.03;100.00
4972;BME280;2501;51.214;6.768;2023-07-29T03:44:45;100370.09;;;18.03;100.00
4972;BME280;2501;51.214;6.768;2023-07-29T03:47:14;100381.44;;;18.08;100.00
4972;BME280;2501;51.214;6.768;2023-07-29T03:49:42;100382.28;;;18.10;100.00
4972;BME280;2501;51.214;6.768;2023-07-29T03:52:11;100394.63;;;18.11;100.00
4972;BME280;2501;51.214;6.768;2023-07-29T03:54:39;100402.59;;;18.11;100.00
4972;BME280;2501;51.214;6.768;2023-07-29T03:57:10;100396.41;;;18.11;100.00
4972;BME280;2501;51.214;6.768;2023-07-29T03:59:38;100396.41;;;18.11;100.00
4972;BME280;2501;51.214;6.768;2023-07-29T04:02:07;100397.31;;;18.09;100.00
4972;BME280;2501;51.214;6.768;2023-07-29T04:04:35;100396.19;;;18.18;100.00
4972;BME280;2501;51.214;6.768;2023-07-29T04:07:05;100399.19;;;18.06;100.00
4972;BME280;2501;51.214;6.768;2023-07-29T04:09:34;100396.53;;;18.06;100.00
4972;BME280;2501;51.214;6.768;2023-07-29T04:12:03;100393.28;;;18.26;100.00
4972;BME280;2501;51.214;6.768;2023-07-29T04:14:34;100390.81;;;18.20;100.00
4972;BME280;2501;51.214;6.768;2023-07-29T04:17:03;100381.19;;;18.17;100.00
4972;BME280;2501;51.214;6.768;2023-07-29T04:19:31;100376.53;;;18.24;100.00
4972;BME280;2501;51.214;6.768;2023-07-29T04:22:00;100405.81;;;18.21;100.00
4972;BME280;2501;51.214;6.768;2023-07-29T04:24:28;100404.81;;;18.25;100.00
4972;BME280;2501;51.214;6.768;2023-07-29T04:26:57;100415.34;;;18.28;100.00
4972;BME280;2501;51.214;6.768;2023-07-29T04:29:25;100418.81;;;18.30;100.00
4972;BME280;2501;51.214;6.768;2023-07-29T04:32:05;100428.72;;;18.25;100.00
4972;BME280;2501;51.214;6.768;2023-07-29T04:34:46;100425.00;;;18.58;100.00
4972;BME280;2501;51.214;6.768;2023-07-29T04:37:14;100430.75;;;18.72;100.00
4972;BME280;2501;51.214;6.768;2023-07-29T04:39:43;100430.97;;;18.93;100.00
4972;BME280;2501;51.214;6.768;2023-07-29T04:42:12;100432.19;;;19.09;100.00
4972;BME280;2501;51.214;6.768;2023-07-29T04:44:40;100439.34;;;19.07;100.00
4972;BME280;2501;51.214;6.768;2023-07-29T04:47:12;100435.56;;;19.14;100.00
4972;BME280;2501;51.214;6.768;2023-07-29T04:49:41;100430.16;;;19.17;100.00
4972;BME280;2501;51.214;6.768;2023-07-29T04:52:09;100428.31;;;18.93;100.00
4972;BME280;2501;51.214;6.768;2023-07-29T04:54:38;100419.56;;;19.16;100.00
4972;BME280;2501;51.214;6.768;2023-07-29T04:57:06;100420.81;;;19.30;100.00
4972;BME280;2501;51.214;6.768;2023-07-29T04:59:35;100418.06;;;19.33;100.00
4972;BME280;2501;51.214;6.768;2023-07-29T05:02:03;100400.53;;;19.03;100.00
4972;BME280;2501;51.214;6.768;2023-07-29T05:04:34;100404.75;;;19.33;100.00
4972;BME280;2501;51.214;6.768;2023-07-29T05:07:03;100396.06;;;19.28;100.00
4972;BME280;2501;51.214;6.768;2023-07-29T05:09:31;100392.13;;;19.15;100.00
4972;BME280;2501;51.214;6.768;2023-07-29T05:12:00;100394.56;;;19.21;100.00
4972;BME280;2501;51.214;6.768;2023-07-29T05:14:28;100395.97;;;19.31;100.00
4972;BME280;2501;51.214;6.768;2023-07-29T05:16:57;100403.56;;;18.91;100.00
4972;BME280;2501;51.214;6.768;2023-07-29T05:19:26;100410.00;;;19.10;100.00
4972;BME280;2501;51.214;6.768;2023-07-29T05:21:57;100415.84;;;18.95;100.00
4972;BME280;2501;51.214;6.768;2023-07-29T05:24:26;100424.34;;;19.31;100.00
4972;BME280;2501;51.214;6.768;2023-07-29T05:26:54;100427.28;;;19.48;100.00
4972;BME280;2501;51.214;6.768;2023-07-29T05:29:22;100429.03;;;19.49;100.00
4972;BME280;2501;51.214;6.768;2023-07-29T05:31:51;100447.91;;;19.41;100.00
4972;BME280;2501;51.214;6.768;2023-07-29T05:34:19;100450.53;;;19.68;100.00
4972;BME280;2501;51.214;6.768;2023-07-29T05:36:48;100449.78;;;19.64;100.00
4972;BME280;2501;51.214;6.768;2023-07-29T05:39:19;100450.19;;;19.54;100.00
4972;BME280;2501;51.214;6.768;2023-07-29T05:41:47;100446.97;;;19.42;100.00
4972;BME280;2501;51.214;6.768;2023-07-29T05:44:15;100442.41;;;19.46;100.00
4972;BME280;2501;51.214;6.768;2023-07-29T05:46:44;100438.13;;;19.42;100.00
4972;BME280;2501;51.214;6.768;2023-07-29T05:49:13;100447.47;;;19.29;100.00
4972;BME280;2501;51.214;6.768;2023-07-29T05:51:41;100467.53;;;19.12;100.00
4972;BME280;2501;51.214;6.768;2023-07-29T05:54:09;100466.25;;;18.98;100.00
4972;BME280;2501;51.214;6.768;2023-07-29T05:56:40;100482.22;;;19.23;100.00
4972;BME280;2501;51.214;6.768;2023-07-29T05:59:09;100472.13;;;19.07;100.00
4972;BME280;2501;51.214;6.768;2023-07-29T06:01:37;100465.63;;;19.16;98.94
4972;BME280;2501;51.214;6.768;2023-07-29T06:04:06;100487.41;;;19.01;97.69
4972;BME280;2501;51.214;6.768;2023-07-29T06:06:34;100490.75;;;19.06;97.97
4972;BME280;2501;51.214;6.768;2023-07-29T06:09:02;100497.38;;;19.21;96.09
4972;BME280;2501;51.214;6.768;2023-07-29T06:11:31;100497.00;;;19.31;97.98
4972;BME280;2501;51.214;6.768;2023-07-29T06:14:02;100493.94;;;19.43;98.28
4972;BME280;2501;51.214;6.768;2023-07-29T06:16:30;100506.75;;;18.78;100.00
4972;BME280;2501;51.214;6.768;2023-07-29T06:18:59;100502.72;;;19.21;100.00
4972;BME280;2501;51.214;6.768;2023-07-29T06:21:27;100502.22;;;19.08;100.00
4972;BME280;2501;51.214;6.768;2023-07-29T06:23:56;100494.47;;;19.02;100.00
4972;BME280;2501;51.214;6.768;2023-07-29T06:26:24;100500.16;;;19.18;100.00
4972;BME280;2501;51.214;6.768;2023-07-29T06:28:52;100505.34;;;18.94;100.00
4972;BME280;2501;51.214;6.768;2023-07-29T06:31:23;100513.50;;;18.60;100.00
4972;BME280;2501;51.214;6.768;2023-07-29T06:33:52;100509.50;;;19.03;98.58
4972;BME280;2501;51.214;6.768;2023-07-29T06:36:20;100514.22;;;18.93;98.74
4972;BME280;2501;51.214;6.768;2023-07-29T06:38:49;100524.16;;;19.41;96.42
4972;BME280;2501;51.214;6.768;2023-07-29T06:41:17;100511.53;;;19.47;93.32
4972;BME280;2501;51.214;6.768;2023-07-29T06:43:45;100504.16;;;19.29;92.04
4972;BME280;2501;51.214;6.768;2023-07-29T06:46:14;100497.63;;;18.87;92.96
4972;BME280;2501;51.214;6.768;2023-07-29T06:48:45;100491.44;;;19.12;93.56
4972;BME280;2501;51.214;6.768;2023-07-29T06:51:13;100490.94;;;19.28;93.01
4972;BME280;2501;51.214;6.768;2023-07-29T06:53:42;100500.22;;;19.41;93.33
4972;BME280;2501;51.214;6.768;2023-07-29T06:56:10;100501.13;;;19.15;94.10
4972;BME280;2501;51.214;6.768;2023-07-29T06:58:38;100501.63;;;19.53;94.45
4972;BME280;2501;51.214;6.768;2023-07-29T07:01:07;100507.06;;;19.48;93.02
4972;BME280;2501;51.214;6.768;2023-07-29T07:03:36;100507.94;;;19.50;93.81
4972;BME280;2501;51.214;6.768;2023-07-29T07:06:07;100505.66;;;19.64;92.82
4972;BME280;2501;51.214;6.768;2023-07-29T07:08:36;100510.38;;;19.56;92.38
4972;BME280;2501;51.214;6.768;2023-07-29T07:11:04;100505.47;;;18.90;97.02
4972;BME280;2501;51.214;6.768;2023-07-29T07:13:33;100504.97;;;19.58;97.28
4972;BME280;2501;51.214;6.768;2023-07-29T07:16:01;100497.16;;;19.78;96.74
4972;BME280;2501;51.214;6.768;2023-07-29T07:18:30;100493.22;;;20.13;92.06
4972;BME280;2501;51.214;6.768;2023-07-29T07:20:58;100498.28;;;19.96;91.08
4972;BME280;2501;51.214;6.768;2023-07-29T07:23:29;100499.31;;;19.92;91.09
4972;BME280;2501;51.214;6.768;2023-07-29T07:25:58;100505.16;;;20.03;89.50
4972;BME280;2501;51.214;6.768;2023-07-29T07:28:26;100509.38;;;20.32;88.45
4972;BME280;2501;51.214;6.768;2023-07-29T07:30:54;100509.44;;;20.07;88.70
4972;BME280;2501;51.214;6.768;2023-07-29T07:33:23;100523.78;;;20.03;89.66
4972;BME280;2501;51.214;6.768;2023-07-29T07:35:51;100518.22;;;20.32;90.04
4972;BME280;2501;51.214;6.768;2023-07-29T07:38:20;100519.72;;;20.16;87.31
4972;BME280;2501;51.214;6.768;2023-07-29T07:40:57;100518.47;;;19.78;88.63
4972;BME280;2501;51.214;6.768;2023-07-29T07:43:25;100522.41;;;20.16;88.59
4972;BME280;2501;51.214;6.768;2023-07-29T07:45:58;100520.03;;;20.32;84.81
4972;BME280;2501;51.214;6.768;2023-07-29T07:48:27;100526.28;;;20.31;83.43
4972;BME280;2501;51.214;6.768;2023-07-29T07:50:55;100524.13;;;20.17;83.22
4972;BME280;2501;51.214;6.768;2023-07-29T07:53:24;100526.53;;;20.00;82.51
4972;BME280;2501;51.214;6.768;2023-07-29T07:55:53;100526.38;;;20.04;81.59
4972;BME280;2501;51.214;6.768;2023-07-29T07:58:24;100524.16;;;19.92;83.48
4972;BME280;2501;51.214;6.768;2023-07-29T08:01:00;100520.88;;;20.57;82.30
4972;BME280;2501;51.214;6.768;2023-07-29T08:03:29;100508.06;;;20.89;78.33
4972;BME280;2501;51.214;6.768;2023-07-29T08:05:58;100509.75;;;20.91;74.35
4972;BME280;2501;51.214;6.768;2023-07-29T08:08:27;100520.09;;;20.77;73.30
4972;BME280;2501;51.214;6.768;2023-07-29T08:10:59;100508.91;;;20.67;73.10
4972;BME280;2501;51.214;6.768;2023-07-29T08:13:30;100522.75;;;20.99;73.26
4972;BME280;2501;51.214;6.768;2023-07-29T08:15:58;100509.34;;;21.00;71.56
4972;BME280;2501;51.214;6.768;2023-07-29T08:18:27;100507.78;;;21.38;71.08
4972;BME280;2501;51.214;6.768;2023-07-29T08:20:56;100501.22;;;21.47;69.58
4972;BME280;2501;51.214;6.768;2023-07-29T08:23:29;100501.47;;;21.41;69.14
4972;BME280;2501;51.214;6.768;2023-07-29T08:25:59;100503.28;;;21.61;68.47
4972;BME280;2501;51.214;6.768;2023-07-29T08:28:33;100511.22;;;21.42;68.72
4972;BME280;2501;51.214;6.768;2023-07-29T08:31:02;100509.19;;;21.27;68.50
4972;BME280;2501;51.214;6.768;2023-07-29T08:33:31;100513.16;;;20.95;69.34
4972;BME280;2501;51.214;6.768;2023-07-29T08:36:00;100513.09;;;20.51;71.75
4972;BME280;2501;51.214;6.768;2023-07-29T08:38:29;100511.78;;;20.84;72.40
4972;BME280;2501;51.214;6.768;2023-07-29T08:41:03;100507.31;;;21.07;72.45
4972;BME280;2501;51.214;6.768;2023-07-29T08:43:38;100498.78;;;20.54;73.04
4972;BME280;2501;51.214;6.768;2023-07-29T08:46:07;100492.25;;;21.06;71.38
4972;BME280;2501;51.214;6.768;2023-07-29T08:48:39;100493.47;;;21.41;70.41
4972;BME280;2501;51.214;6.768;2023-07-29T08:51:09;100490.69;;;21.00;71.88
4972;BME280;2501;51.214;6.768;2023-07-29T08:53:38;100495.91;;;20.60;73.74
4972;BME280;2501;51.214;6.768;2023-07-29T08:56:07;100504.91;;;21.23;72.60
4972;BME280;2501;51.214;6.768;2023-07-29T08:58:39;100503.94;;;21.45;70.83
4972;BME280;2501;51.214;6.768;2023-07-29T09:01:08;100508.41;;;21.85;69.01
4972;BME280;2501;51.214;6.768;2023-07-29T09:03:36;100508.50;;;21.64;68.15
4972;BME280;2501;51.214;6.768;2023-07-29T09:06:05;100506.84;;;22.58;65.21
4972;BME280;2501;51.214;6.768;2023-07-29T09:08:35;100508.16;;;22.68;63.75
4972;BME280;2501;51.214;6.768;2023-07-29T09:11:03;100519.53;;;21.95;66.90
4972;BME280;2501;51.214;6.768;2023-07-29T09:13:32;100513.59;;;21.68;68.83
4972;BME280;2501;51.214;6.768;2023-07-29T09:16:04;100519.47;;;21.97;68.08
4972;BME280;2501;51.214;6.768;2023-07-29T09:18:32;100521.78;;;22.25;66.28
4972;BME280;2501;51.214;6.768;2023-07-29T09:21:01;100521.09;;;22.40;64.88
4972;BME280;2501;51.214;6.768;2023-07-29T09:23:38;100518.75;;;21.93;65.78
4972;BME280;2501;51.214;6.768;2023-07-29T09:26:07;100522.38;;;22.31;66.66
4972;BME280;2501;51.214;6.768;2023-07-29T09:28:38;100512.78;;;22.27;66.86
4972;BME280;2501;51.214;6.768;2023-07-29T09:31:18;100515.16;;;22.14;66.02
4972;BME280;2501;51.214;6.768;2023-07-29T09:33:47;100512.34;;;22.55;64.82
4972;BME280;2501;51.214;6.768;2023-07-29T09:36:16;100514.94;;;22.38;66.01
4972;BME280;2501;51.214;6.768;2023-07-29T09:38:44;100511.53;;;22.34;64.81
4972;BME280;2501;51.214;6.768;2023-07-29T09:41:15;100529.00;;;22.22;65.24
4972;BME280;2501;51.214;6.768;2023-07-29T09:43:43;100524.59;;;22.21;65.22
4972;BME280;2501;51.214;6.768;2023-07-29T09:46:15;100523.97;;;22.35;64.97
4972;BME280;2501;51.214;6.768;2023-07-29T09:48:43;100525.44;;;22.61;64.58
4972;BME280;2501;51.214;6.768;2023-07-29T09:51:15;100521.69;;;22.65;63.28
4972;BME280;2501;51.214;6.768;2023-07-29T09:53:44;100513.34;;;22.52;64.58
4972;BME280;2501;51.214;6.768;2023-07-29T09:56:14;100509.25;;;22.64;62.15
4972;BME280;2501;51.214;6.768;2023-07-29T09:58:44;100509.66;;;22.55;62.85
4972;BME280;2501;51.214;6.768;2023-07-29T10:01:15;100510.78;;;22.51;62.60
4972;BME280;2501;51.214;6.768;2023-07-29T10:03:44;100519.88;;;22.66;62.87
4972;BME280;2501;51.214;6.768;2023-07-29T10:06:14;100514.13;;;22.73;63.52
4972;BME280;2501;51.214;6.768;2023-07-29T10:08:43;100506.38;;;22.50;63.99
4972;BME280;2501;51.214;6.768;2023-07-29T10:11:12;100515.19;;;22.33;64.51
4972;BME280;2501;51.214;6.768;2023-07-29T10:13:40;100508.69;;;21.79;66.32
4972;BME280;2501;51.214;6.768;2023-07-29T10:16:09;100505.34;;;22.34;64.50
4972;BME280;2501;51.214;6.768;2023-07-29T10:18:41;100510.84;;;22.68;63.96
4972;BME280;2501;51.214;6.768;2023-07-29T10:21:11;100501.41;;;23.50;61.38
4972;BME280;2501;51.214;6.768;2023-07-29T10:23:46;100502.56;;;23.10;63.14
4972;BME280;2501;51.214;6.768;2023-07-29T10:26:19;100510.22;;;23.35;60.32
4972;BME280;2501;51.214;6.768;2023-07-29T10:28:50;100514.59;;;22.64;62.71
4972;BME280;2501;51.214;6.768;2023-07-29T10:31:21;100513.44;;;22.51;62.59
4972;BME280;2501;51.214;6.768;2023-07-29T10:33:54;100516.50;;;22.81;64.26
4972;BME280;2501;51.214;6.768;2023-07-29T10:36:23;100517.13;;;22.86;62.71
4972;BME280;2501;51.214;6.768;2023-07-29T10:38:52;100513.25;;;23.10;60.87
4972;BME280;2501;51.214;6.768;2023-07-29T10:41:22;100510.53;;;22.93;62.83
4972;BME280;2501;51.214;6.768;2023-07-29T10:43:51;100518.16;;;23.19;60.75
4972;BME280;2501;51.214;6.768;2023-07-29T10:46:20;100517.88;;;22.69;61.55
4972;BME280;2501;51.214;6.768;2023-07-29T10:48:55;100507.19;;;22.69;62.73
4972;BME280;2501;51.214;6.768;2023-07-29T10:51:26;100493.00;;;23.05;62.55
4972;BME280;2501;51.214;6.768;2023-07-29T10:53:56;100500.91;;;23.42;62.30
4972;BME280;2501;51.214;6.768;2023-07-29T10:56:26;100497.91;;;22.59;64.51
4972;BME280;2501;51.214;6.768;2023-07-29T10:58:56;100492.50;;;23.84;59.62
4972;BME280;2501;51.214;6.768;2023-07-29T11:01:29;100483.84;;;24.61;57.16
4972;BME280;2501;51.214;6.768;2023-07-29T11:04:28;100482.88;;;25.25;53.51
4972;BME280;2501;51.214;6.768;2023-07-29T11:07:21;100488.72;;;24.21;58.84
4972;BME280;2501;51.214;6.768;2023-07-29T11:09:56;100488.34;;;23.62;59.79
4972;BME280;2501;51.214;6.768;2023-07-29T11:12:38;100488.72;;;24.54;57.22
4972;BME280;2501;51.214;6.768;2023-07-29T11:15:19;100478.13;;;24.36;55.42
4972;BME280;2501;51.214;6.768;2023-07-29T11:17:50;100493.88;;;24.42;55.02
4972;BME280;2501;51.214;6.768;2023-07-29T11:20:22;100501.66;;;23.63;57.42
4972;BME280;2501;51.214;6.768;2023-07-29T11:22:51;100497.94;;;23.31;58.91
4972;BME280;2501;51.214;6.768;2023-07-29T11:25:20;100501.94;;;22.86;62.11
4972;BME280;2501;51.214;6.768;2023-07-29T11:27:51;100508.63;;;23.14;60.96
4972;BME280;2501;51.214;6.768;2023-07-29T11:30:20;100505.34;;;22.90;62.86
4972;BME280;2501;51.214;6.768;2023-07-29T11:32:48;100500.06;;;22.88;63.43
4972;BME280;2501;51.214;6.768;2023-07-29T11:35:20;100500.25;;;21.88;67.28
4972;BME280;2501;51.214;6.768;2023-07-29T11:37:50;100498.19;;;22.15;68.52
4972;BME280;2501;51.214;6.768;2023-07-29T11:40:20;100499.19;;;22.13;68.36
4972;BME280;2501;51.214;6.768;2023-07-29T11:42:50;100495.66;;;22.87;66.44
4972;BME280;2501;51.214;6.768;2023-07-29T11:45:19;100499.41;;;22.65;66.00
4972;BME280;2501;51.214;6.768;2023-07-29T11:47:48;100499.47;;;22.26;67.49
4972;BME280;2501;51.214;6.768;2023-07-29T11:50:17;100500.69;;;22.18;67.21
4972;BME280;2501;51.214;6.768;2023-07-29T11:52:48;100501.94;;;22.86;65.05
4972;BME280;2501;51.214;6.768;2023-07-29T11:55:16;100498.81;;;24.16;60.05
4972;BME280;2501;51.214;6.768;2023-07-29T11:57:51;100487.47;;;24.28;58.44
4972;BME280;2501;51.214;6.768;2023-07-29T12:00:20;100492.44;;;24.19;59.48
4972;BME280;2501;51.214;6.768;2023-07-29T12:02:49;100480.59;;;24.56;58.35
4972;BME280;2501;51.214;6.768;2023-07-29T12:05:21;100477.69;;;24.27;57.72
4972;BME280;2501;51.214;6.768;2023-07-29T12:07:53;100482.13;;;24.11;58.67
4972;BME280;2501;51.214;6.768;2023-07-29T12:10:21;100473.81;;;24.49;57.50
4972;BME280;2501;51.214;6.768;2023-07-29T12:12:50;100476.28;;;24.20;57.64
4972;BME280;2501;51.214;6.768;2023-07-29T12:15:25;100480.47;;;23.58;60.89
4972;BME280;2501;51.214;6.768;2023-07-29T12:17:55;100469.66;;;24.27;57.39
4972;BME280;2501;51.214;6.768;2023-07-29T12:20:27;100466.91;;;24.45;56.07
4972;BME280;2501;51.214;6.768;2023-07-29T12:23:00;100458.66;;;24.95;55.63
4972;BME280;2501;51.214;6.768;2023-07-29T12:25:31;100466.66;;;24.16;55.93
4972;BME280;2501;51.214;6.768;2023-07-29T12:28:03;100473.06;;;23.81;58.36
4972;BME280;2501;51.214;6.768;2023-07-29T12:30:33;100465.47;;;24.22;56.36
4972;BME280;2501;51.214;6.768;2023-07-29T12:33:01;100464.38;;;24.42;56.62
4972;BME280;2501;51.214;6.768;2023-07-29T12:35:35;100454.25;;;24.31;55.55
4972;BME280;2501;51.214;6.768;2023-07-29T12:38:07;100462.09;;;24.18;55.70
4972;BME280;2501;51.214;6.768;2023-07-29T12:40:38;100456.19;;;24.76;54.70
4972;BME280;2501;51.214;6.768;2023-07-29T12:43:07;100453.38;;;24.78;54.04
4972;BME280;2501;51.214;6.768;2023-07-29T12:45:36;100459.78;;;24.91;54.34
4972;BME280;2501;51.214;6.768;2023-07-29T12:48:05;100445.22;;;25.41;52.17
4972;BME280;2501;51.214;6.768;2023-07-29T12:50:33;100439.13;;;24.61;53.98
4972;BME280;2501;51.214;6.768;2023-07-29T12:53:02;100448.13;;;24.76;53.66
4972;BME280;2501;51.214;6.768;2023-07-29T12:55:33;100450.78;;;24.92;53.17
4972;BME280;2501;51.214;6.768;2023-07-29T12:58:02;100448.13;;;24.92;52.85
4972;BME280;2501;51.214;6.768;2023-07-29T13:00:30;100449.22;;;25.63;51.26
4972;BME280;2501;51.214;6.768;2023-07-29T13:02:58;100450.59;;;25.85;49.91
4972;BME280;2501;51.214;6.768;2023-07-29T13:05:30;100454.03;;;24.36;54.74
4972;BME280;2501;51.214;6.768;2023-07-29T13:07:59;100444.00;;;24.23;55.31
4972;BME280;2501;51.214;6.768;2023-07-29T13:10:27;100451.53;;;24.15;55.54
4972;BME280;2501;51.214;6.768;2023-07-29T13:12:58;100462.84;;;24.05;57.48
4972;BME280;2501;51.214;6.768;2023-07-29T13:15:27;100472.91;;;23.32;60.75
4972;BME280;2501;51.214;6.768;2023-07-29T13:17:55;100479.66;;;23.22;61.23